createdAt,value
2023-03-02T00:00:49.696Z,31.38
2023-03-02T00:03:53.803Z,30.95
2023-03-02T00:06:57.959Z,30.67
2023-03-02T00:10:01.868Z,30.80
2023-03-02T00:13:08.956Z,31.13
2023-03-02T00:16:12.897Z,30.68
2023-03-02T00:19:17.006Z,30.95
2023-03-02T00:22:21.001Z,30.99
2023-03-02T00:25:25.216Z,30.90
2023-03-02T00:28:29.242Z,30.60
2023-03-02T00:31:33.334Z,31.26
2023-03-02T00:34:37.125Z,31.66
2023-03-02T00:37:41.259Z,30.94
2023-03-02T00:40:45.397Z,32.07
2023-03-02T00:43:49.582Z,31.77
2023-03-02T00:46:53.678Z,31.26
2023-03-02T00:49:57.699Z,31.50
2023-03-02T00:53:01.942Z,32.38
2023-03-02T00:56:05.933Z,32.97
2023-03-02T00:59:09.784Z,32.55
2023-03-02T01:02:14.013Z,32.41
2023-03-02T01:05:18.185Z,31.77
2023-03-02T01:08:21.942Z,32.26
2023-03-02T01:11:25.999Z,31.57
2023-03-02T01:14:29.754Z,32.04
2023-03-02T01:17:33.754Z,33.16
2023-03-02T01:20:38.531Z,31.95
2023-03-02T01:23:42.697Z,32.50
2023-03-02T01:26:46.812Z,31.78
2023-03-02T01:29:51.763Z,31.51
2023-03-02T01:32:55.381Z,33.56
2023-03-02T01:35:59.605Z,33.14
2023-03-02T01:39:04.073Z,32.46
2023-03-02T01:42:07.708Z,33.01
2023-03-02T01:45:11.808Z,32.38
2023-03-02T01:48:15.822Z,32.85
2023-03-02T01:51:19.902Z,32.71
2023-03-02T01:54:23.758Z,31.86
2023-03-02T01:57:27.501Z,31.85
2023-03-02T02:00:31.508Z,31.46
2023-03-02T02:03:35.942Z,31.25
2023-03-02T02:06:39.966Z,31.92
2023-03-02T02:09:43.714Z,32.32
2023-03-02T02:12:47.754Z,32.35
2023-03-02T02:15:54.543Z,32.54
2023-03-02T02:19:01.054Z,32.82
2023-03-02T02:22:05.239Z,32.49
2023-03-02T02:25:09.365Z,32.00
2023-03-02T02:28:13.182Z,32.84
2023-03-02T02:31:19.165Z,33.21
2023-03-02T02:34:26.453Z,33.00
2023-03-02T02:37:30.338Z,32.30
2023-03-02T02:40:34.521Z,32.67
2023-03-02T02:43:38.575Z,33.57
2023-03-02T02:46:42.423Z,32.93
2023-03-02T02:49:46.380Z,32.98
2023-03-02T02:52:50.689Z,33.87
2023-03-02T02:55:55.179Z,33.38
2023-03-02T02:58:59.044Z,33.64
2023-03-02T03:02:02.904Z,32.21
2023-03-02T03:05:06.995Z,32.84
2023-03-02T03:08:11.187Z,32.12
2023-03-02T03:11:15.116Z,32.49
2023-03-02T03:14:19.128Z,32.99
2023-03-02T03:17:26.035Z,31.81
2023-03-02T03:20:30.052Z,32.12
2023-03-02T03:23:37.108Z,31.84
2023-03-02T03:26:41.240Z,31.90
2023-03-02T03:29:45.705Z,31.34
2023-03-02T03:32:49.761Z,32.27
2023-03-02T03:35:53.674Z,33.20
2023-03-02T03:38:57.606Z,31.85
2023-03-02T03:42:01.860Z,31.55
2023-03-02T03:45:06.152Z,31.62
2023-03-02T03:48:09.790Z,32.08
2023-03-02T03:51:13.798Z,32.63
2023-03-02T03:54:19.120Z,32.44
2023-03-02T03:57:23.213Z,32.92
2023-03-02T04:00:27.398Z,32.09
2023-03-02T04:03:31.535Z,32.68
2023-03-02T04:06:35.714Z,33.67
2023-03-02T04:09:39.987Z,33.81
2023-03-02T04:12:44.274Z,33.27
2023-03-02T04:15:48.434Z,33.34
2023-03-02T04:18:52.197Z,33.04
2023-03-02T04:21:55.740Z,33.60
2023-03-02T04:24:59.831Z,33.47
2023-03-02T04:28:03.961Z,33.66
2023-03-02T04:31:08.076Z,33.84
2023-03-02T04:34:12.013Z,33.15
2023-03-02T04:37:16.216Z,33.38
2023-03-02T04:40:20.429Z,34.21
2023-03-02T04:43:24.586Z,34.56
2023-03-02T04:46:28.869Z,34.76
2023-03-02T04:49:32.904Z,34.61
2023-03-02T04:52:37.013Z,34.12
2023-03-02T04:55:40.919Z,34.69
2023-03-02T04:58:45.179Z,33.96
2023-03-02T05:01:49.064Z,34.67
2023-03-02T05:04:53.403Z,34.06
2023-03-02T05:07:57.584Z,33.50
2023-03-02T05:11:01.381Z,33.89
2023-03-02T05:14:05.538Z,33.92
2023-03-02T05:17:09.624Z,35.37
2023-03-02T05:20:13.457Z,35.94
2023-03-02T05:23:17.420Z,35.59
2023-03-02T05:26:22.731Z,33.66
2023-03-02T05:29:26.580Z,33.52
2023-03-02T05:32:30.805Z,33.47
2023-03-02T05:35:35.218Z,32.75
2023-03-02T05:38:39.257Z,33.37
2023-03-02T05:41:43.265Z,32.85
2023-03-02T05:44:47.136Z,32.82
2023-03-02T05:47:53.368Z,32.18
2023-03-02T05:50:58.766Z,32.53
2023-03-02T05:54:03.297Z,32.34
2023-03-02T05:57:07.730Z,34.08
2023-03-02T06:00:11.441Z,33.05
2023-03-02T06:03:15.295Z,32.27
2023-03-02T06:06:19.460Z,32.92
2023-03-02T06:09:23.740Z,33.93
2023-03-02T06:12:27.675Z,33.16
2023-03-02T06:15:31.644Z,33.12
2023-03-02T06:18:35.698Z,32.76
2023-03-02T06:21:39.537Z,32.23
2023-03-02T06:24:43.653Z,33.64
2023-03-02T06:27:47.666Z,33.22
2023-03-02T06:30:51.753Z,33.25
2023-03-02T06:33:55.895Z,33.66
2023-03-02T06:37:04.198Z,33.20
2023-03-02T06:40:08.552Z,32.94
2023-03-02T06:43:15.132Z,33.10
2023-03-02T06:46:19.399Z,33.13
2023-03-02T06:49:23.680Z,33.63
2023-03-02T06:52:27.475Z,32.61
2023-03-02T06:55:31.330Z,32.92
2023-03-02T06:58:35.201Z,32.83
2023-03-02T07:01:39.193Z,33.31
2023-03-02T07:04:43.323Z,33.14
2023-03-02T07:07:47.480Z,33.67
2023-03-02T07:10:51.729Z,34.34
2023-03-02T07:13:55.853Z,33.35
2023-03-02T07:17:02.016Z,33.87
2023-03-02T07:20:07.452Z,34.28
2023-03-02T07:23:11.597Z,33.92
2023-03-02T07:26:15.631Z,34.12
2023-03-02T07:29:19.768Z,33.29
2023-03-02T07:32:23.711Z,33.51
2023-03-02T07:35:38.376Z,34.35
2023-03-02T07:38:42.653Z,33.53
2023-03-02T07:41:46.602Z,33.45
2023-03-02T07:44:50.960Z,34.29
2023-03-02T07:47:54.637Z,33.18
2023-03-02T07:50:58.836Z,32.80
2023-03-02T07:54:02.574Z,33.75
2023-03-02T07:57:06.537Z,32.40
2023-03-02T08:00:10.202Z,33.54
2023-03-02T08:03:14.426Z,34.41
2023-03-02T08:06:18.540Z,33.23
2023-03-02T08:09:22.206Z,34.01
2023-03-02T08:12:26.141Z,34.06
2023-03-02T08:15:31.459Z,34.10
2023-03-02T08:18:35.722Z,33.79
2023-03-02T08:21:39.885Z,34.29
2023-03-02T08:24:43.698Z,33.83
2023-03-02T08:27:47.814Z,35.80
2023-03-02T08:30:52.792Z,34.69
2023-03-02T08:33:57.063Z,35.34
2023-03-02T08:37:02.148Z,34.74
2023-03-02T08:40:06.466Z,34.89
2023-03-02T08:43:10.306Z,34.35
2023-03-02T08:46:14.315Z,34.04
2023-03-02T08:49:20.825Z,35.35
2023-03-02T08:52:27.097Z,35.30
2023-03-02T08:55:31.569Z,34.80
2023-03-02T08:58:35.855Z,35.13
2023-03-02T09:01:39.888Z,33.72
2023-03-02T09:04:43.810Z,34.27
2023-03-02T09:07:47.674Z,34.19
2023-03-02T09:10:51.536Z,33.68
2023-03-02T09:13:55.428Z,34.33
2023-03-02T09:17:02.083Z,34.23
2023-03-02T09:20:06.168Z,34.10
2023-03-02T09:23:10.494Z,33.86
2023-03-02T09:26:14.607Z,33.98
2023-03-02T09:29:20.034Z,33.57
2023-03-02T09:32:25.616Z,34.54
2023-03-02T09:35:30.448Z,33.74
2023-03-02T09:38:34.576Z,34.09
2023-03-02T09:41:38.717Z,34.42
2023-03-02T09:44:42.500Z,34.26
2023-03-02T09:47:46.415Z,33.92
2023-03-02T09:50:50.227Z,33.93
2023-03-02T09:53:54.204Z,32.10
2023-03-02T09:57:02.350Z,33.43
2023-03-02T10:00:18.105Z,34.08
2023-03-02T10:03:22.837Z,33.59
2023-03-02T10:06:26.793Z,33.97
2023-03-02T10:09:30.577Z,33.21
2023-03-02T10:12:34.884Z,34.11
2023-03-02T10:15:40.744Z,33.79
2023-03-02T10:18:47.176Z,32.80
2023-03-02T10:21:51.242Z,31.39
2023-03-02T10:24:55.347Z,32.00
2023-03-02T10:27:59.340Z,33.38
2023-03-02T10:31:52.208Z,34.01
2023-03-02T10:34:28.093Z,33.16
2023-03-02T10:37:32.323Z,33.72
2023-03-02T10:40:35.895Z,33.69
2023-03-02T10:43:40.026Z,33.36
2023-03-02T10:46:44.418Z,34.07
2023-03-02T10:49:48.649Z,33.08
2023-03-02T10:53:00.251Z,34.76
2023-03-02T10:56:05.111Z,32.98
2023-03-02T10:59:09.171Z,33.30
2023-03-02T11:02:16.362Z,33.53
2023-03-02T11:05:20.072Z,33.01
2023-03-02T11:08:24.208Z,33.26
2023-03-02T11:11:28.393Z,33.82
2023-03-02T11:14:32.601Z,32.88
2023-03-02T11:17:36.366Z,33.32
2023-03-02T11:20:40.174Z,32.89
2023-03-02T11:23:44.302Z,33.57
2023-03-02T11:26:48.714Z,33.60
2023-03-02T11:29:52.326Z,33.78
2023-03-02T11:32:56.319Z,33.50
2023-03-02T11:36:22.601Z,34.51
2023-03-02T11:39:24.846Z,34.04
2023-03-02T11:42:29.349Z,34.02
2023-03-02T11:45:33.921Z,34.38
2023-03-02T11:48:37.792Z,34.10
2023-03-02T11:55:08.002Z,33.79
2023-03-02T11:58:11.691Z,34.05
2023-03-02T12:01:15.526Z,33.68
2023-03-02T12:04:19.750Z,33.55
2023-03-02T12:07:23.717Z,33.27
2023-03-02T12:10:27.876Z,34.25
2023-03-02T12:13:31.726Z,34.76
2023-03-02T12:16:36.359Z,34.08
2023-03-02T12:19:40.923Z,34.25
2023-03-02T12:22:46.260Z,33.51
2023-03-02T12:25:50.348Z,34.11
2023-03-02T12:28:54.141Z,33.77
2023-03-02T12:31:58.268Z,33.05
2023-03-02T12:35:02.427Z,32.87
2023-03-02T12:38:06.476Z,32.80
2023-03-02T12:41:10.383Z,33.17
2023-03-02T12:44:14.593Z,33.32
2023-03-02T12:47:20.433Z,33.92
2023-03-02T12:50:25.020Z,34.46
2023-03-02T12:53:29.020Z,35.16
2023-03-02T12:56:32.727Z,34.78
2023-03-02T12:59:37.078Z,35.18
2023-03-02T13:02:41.045Z,34.51
2023-03-02T13:05:45.277Z,34.67
2023-03-02T13:08:49.457Z,35.12
2023-03-02T13:11:53.480Z,35.19
2023-03-02T13:14:57.530Z,35.17
2023-03-02T13:18:01.663Z,35.70
2023-03-02T13:21:05.853Z,33.51
2023-03-02T13:24:10.192Z,35.64
2023-03-02T13:27:15.031Z,34.10
2023-03-02T13:30:18.920Z,35.51
2023-03-02T13:33:22.899Z,34.91
2023-03-02T13:36:27.324Z,34.64
2023-03-02T13:39:31.455Z,34.44
2023-03-02T13:42:35.665Z,34.11
2023-03-02T13:45:39.772Z,34.35
2023-03-02T13:48:47.852Z,33.91
2023-03-02T13:51:55.473Z,34.84
2023-03-02T13:54:59.643Z,35.23
2023-03-02T13:58:03.780Z,34.96
2023-03-02T14:01:07.712Z,35.00
2023-03-02T14:04:12.062Z,35.32
2023-03-02T14:07:16.505Z,35.73
2023-03-02T14:10:20.305Z,35.03
2023-03-02T14:13:24.439Z,34.94
2023-03-02T14:16:28.532Z,34.97
2023-03-02T14:19:32.659Z,34.27
2023-03-02T14:22:37.067Z,34.69
2023-03-02T14:25:41.335Z,34.40
2023-03-02T14:28:47.424Z,34.20
2023-03-02T14:31:55.122Z,34.46
2023-03-02T14:34:59.981Z,34.34
2023-03-02T14:38:03.594Z,34.19
2023-03-02T14:41:10.336Z,34.58
2023-03-02T14:44:15.729Z,35.52
2023-03-02T14:47:19.916Z,34.81
2023-03-02T14:50:23.827Z,34.46
2023-03-02T14:53:27.930Z,35.40
2023-03-02T14:56:32.039Z,35.25
2023-03-02T14:59:36.255Z,35.38
2023-03-02T15:02:40.634Z,35.57
2023-03-02T15:05:58.922Z,35.99
2023-03-02T15:09:04.188Z,35.79
2023-03-02T15:12:08.080Z,36.04
2023-03-02T15:15:12.593Z,35.46
2023-03-02T15:18:16.394Z,34.49
2023-03-02T15:21:20.455Z,34.70
2023-03-02T15:24:24.510Z,34.85
2023-03-02T15:27:28.503Z,34.78
2023-03-02T15:30:32.511Z,35.78
2023-03-02T15:33:36.650Z,35.56
2023-03-02T15:36:40.246Z,36.01
2023-03-02T15:39:44.382Z,34.85
2023-03-02T15:42:48.627Z,35.37
2023-03-02T15:45:52.395Z,36.53
2023-03-02T15:48:56.273Z,35.05
2023-03-02T15:52:00.421Z,36.49
2023-03-02T15:55:04.502Z,35.73
2023-03-02T15:58:08.804Z,34.65
2023-03-02T16:01:12.906Z,35.13
2023-03-02T16:04:17.062Z,35.96
2023-03-02T16:07:21.455Z,35.84
2023-03-02T16:10:25.222Z,35.86
2023-03-02T16:13:29.299Z,35.52
2023-03-02T16:16:33.420Z,35.30
2023-03-02T16:19:41.415Z,35.78
2023-03-02T16:22:45.542Z,35.28
2023-03-02T16:25:49.628Z,36.93
2023-03-02T16:28:53.848Z,35.87
2023-03-02T16:31:58.090Z,35.74
2023-03-02T16:35:02.016Z,35.42
2023-03-02T16:38:05.815Z,35.36
2023-03-02T16:41:09.737Z,36.13
2023-03-02T16:44:13.804Z,37.10
2023-03-02T16:47:21.037Z,37.27
2023-03-02T16:50:25.100Z,37.77
2023-03-02T16:53:28.950Z,35.92
2023-03-02T16:56:33.058Z,35.87
2023-03-02T16:59:37.242Z,35.17
2023-03-02T17:02:41.440Z,35.10
2023-03-02T17:05:45.410Z,35.63
2023-03-02T17:08:49.282Z,35.72
2023-03-02T17:11:53.474Z,35.61
2023-03-02T17:15:01.828Z,35.01
2023-03-02T17:18:06.047Z,35.66
2023-03-02T17:21:13.494Z,36.58
2023-03-02T17:24:17.875Z,36.96
2023-03-02T17:27:25.477Z,37.80
2023-03-02T17:30:30.033Z,36.92
2023-03-02T17:33:34.145Z,36.60
2023-03-02T17:36:38.314Z,35.81
2023-03-02T17:39:42.299Z,36.95
2023-03-02T17:42:46.181Z,37.14
2023-03-02T17:45:50.510Z,35.90
2023-03-02T17:48:54.370Z,36.29
2023-03-02T17:52:21.193Z,36.77
2023-03-02T17:55:23.255Z,36.42
2023-03-02T17:58:33.207Z,36.67
2023-03-02T18:01:48.386Z,36.33
2023-03-02T18:04:54.507Z,36.30
2023-03-02T18:07:59.751Z,36.50
2023-03-02T18:11:13.906Z,36.39
2023-03-02T18:14:20.090Z,36.67
2023-03-02T18:17:24.029Z,37.88
2023-03-02T18:20:28.165Z,37.76
2023-03-02T18:23:32.010Z,37.71
2023-03-02T18:26:36.050Z,37.21
2023-03-02T18:29:39.925Z,37.51
2023-03-02T18:32:43.939Z,37.57
2023-03-02T18:35:47.738Z,38.12
2023-03-02T18:38:51.843Z,37.00
2023-03-02T18:41:55.886Z,37.67
2023-03-02T18:45:09.028Z,37.76
2023-03-02T18:48:15.074Z,37.26
2023-03-02T18:51:19.208Z,37.57
2023-03-02T18:54:23.107Z,37.38
2023-03-02T18:57:27.138Z,37.94
2023-03-02T19:00:30.854Z,37.65
2023-03-02T19:03:37.000Z,38.50
2023-03-02T19:06:41.935Z,38.30
2023-03-02T19:09:45.958Z,38.67
2023-03-02T19:12:49.646Z,38.08
2023-03-02T19:15:55.771Z,38.79
2023-03-02T19:18:59.812Z,38.50
2023-03-02T19:22:06.616Z,38.42
2023-03-02T19:25:15.141Z,38.47
2023-03-02T19:28:19.711Z,39.39
2023-03-02T19:31:25.132Z,39.76
2023-03-02T19:34:29.230Z,40.04
2023-03-02T19:37:33.265Z,39.84
2023-03-02T19:40:37.134Z,39.76
2023-03-02T19:43:41.224Z,39.59
2023-03-02T19:46:45.348Z,39.83
2023-03-02T19:49:49.608Z,40.06
2023-03-02T19:52:53.700Z,39.31
2023-03-02T19:55:59.499Z,39.56
2023-03-02T19:59:03.410Z,40.12
2023-03-02T20:02:07.705Z,40.30
2023-03-02T20:05:11.926Z,39.94
2023-03-02T20:08:15.700Z,40.57
2023-03-02T20:11:19.666Z,39.47
2023-03-02T20:14:33.369Z,40.54
2023-03-02T20:17:37.926Z,40.47
2023-03-02T20:20:44.938Z,39.85
2023-03-02T20:23:49.136Z,41.51
2023-03-02T20:26:53.321Z,41.23
2023-03-02T20:29:57.325Z,40.96
2023-03-02T20:33:01.444Z,41.81
2023-03-02T20:36:05.152Z,41.52
2023-03-02T20:39:13.312Z,40.56
2023-03-02T20:42:17.652Z,42.03
2023-03-02T20:45:22.892Z,42.42
2023-03-02T20:48:30.027Z,42.25
2023-03-02T20:51:34.176Z,41.09
2023-03-02T20:54:39.093Z,41.64
2023-03-02T20:57:43.217Z,41.66
2023-03-02T21:00:48.663Z,42.52
2023-03-02T21:03:52.852Z,40.64
2023-03-02T21:06:57.016Z,41.30
2023-03-02T21:10:01.123Z,41.93
2023-03-02T21:13:04.870Z,41.06
2023-03-02T21:16:19.262Z,41.97
2023-03-02T21:19:23.263Z,42.54
2023-03-02T21:22:27.422Z,40.22
2023-03-02T21:25:36.030Z,42.76
2023-03-02T21:29:10.640Z,42.12
2023-03-02T21:32:04.585Z,42.28
2023-03-02T21:35:08.765Z,42.24
2023-03-02T21:38:13.220Z,41.78
2023-03-02T21:41:18.423Z,40.94
2023-03-02T21:44:23.466Z,40.65
2023-03-02T21:47:27.728Z,41.37
2023-03-02T21:50:32.438Z,39.75
2023-03-02T21:53:36.528Z,40.07
2023-03-02T21:56:40.534Z,40.95
2023-03-02T21:59:44.731Z,41.82
2023-03-02T22:02:48.318Z,41.18
2023-03-02T22:05:52.580Z,41.83
2023-03-02T22:08:56.764Z,41.93
2023-03-02T22:12:23.073Z,42.04
2023-03-02T22:15:27.331Z,42.98
2023-03-02T22:18:36.266Z,41.51
2023-03-02T22:21:40.602Z,41.76
2023-03-02T22:24:44.282Z,42.64
2023-03-02T22:27:48.295Z,42.27
2023-03-02T22:30:52.520Z,43.54
2023-03-02T22:33:56.431Z,43.02
2023-03-02T22:37:00.752Z,42.83
2023-03-02T22:40:05.326Z,42.08
2023-03-02T22:43:09.400Z,41.59
2023-03-02T22:46:13.816Z,42.29
2023-03-02T22:49:18.088Z,41.17
2023-03-02T22:52:22.533Z,41.08
2023-03-02T22:55:26.853Z,41.86
2023-03-02T22:58:30.687Z,41.81
2023-03-02T23:01:34.782Z,41.20
2023-03-02T23:04:38.754Z,42.71
2023-03-02T23:07:44.301Z,41.26
2023-03-02T23:10:49.438Z,42.50
2023-03-02T23:13:53.424Z,41.35
2023-03-02T23:16:57.834Z,40.06
2023-03-02T23:20:03.702Z,41.93
2023-03-02T23:23:10.384Z,41.44
2023-03-02T23:26:14.562Z,42.70
2023-03-02T23:29:18.497Z,41.57
2023-03-02T23:32:22.643Z,42.90
2023-03-02T23:35:27.055Z,42.91
2023-03-02T23:38:31.588Z,42.23
2023-03-02T23:41:35.636Z,41.56
2023-03-02T23:44:41.001Z,41.58
2023-03-02T23:47:46.360Z,41.18
2023-03-02T23:50:50.551Z,42.22
2023-03-02T23:53:54.425Z,41.54
2023-03-02T23:56:58.337Z,42.13
